地図

経路データ

SID SEASON NUMBER BASIN SUBBASIN NAME ISO_TIME NATURE LAT LON WMO_WIND WMO_PRES WMO_AGENCY TRACK_TYPE DIST2LAND LANDFALL IFLAG USA_AGENCY USA_ATCF_ID USA_LAT USA_LON USA_RECORD USA_STATUS USA_WIND USA_PRES USA_SSHS USA_R34_NE USA_R34_SE USA_R34_SW USA_R34_NW USA_R50_NE USA_R50_SE USA_R50_SW USA_R50_NW USA_R64_NE USA_R64_SE USA_R64_SW USA_R64_NW USA_POCI USA_ROCI USA_RMW USA_EYE TOKYO_LAT TOKYO_LON TOKYO_GRADE TOKYO_WIND TOKYO_PRES TOKYO_R50_DIR TOKYO_R50_LONG TOKYO_R50_SHORT TOKYO_R30_DIR TOKYO_R30_LONG TOKYO_R30_SHORT TOKYO_LAND CMA_LAT CMA_LON CMA_CAT CMA_WIND CMA_PRES HKO_LAT HKO_LON HKO_CAT HKO_WIND HKO_PRES NEWDELHI_LAT NEWDELHI_LON NEWDELHI_GRADE NEWDELHI_WIND NEWDELHI_PRES NEWDELHI_CI NEWDELHI_DP NEWDELHI_POCI REUNION_LAT REUNION_LON REUNION_TYPE REUNION_WIND REUNION_PRES REUNION_TNUM REUNION_CI REUNION_RMW REUNION_R34_NE REUNION_R34_SE REUNION_R34_SW REUNION_R34_NW REUNION_R50_NE REUNION_R50_SE REUNION_R50_SW REUNION_R50_NW REUNION_R64_NE REUNION_R64_SE REUNION_R64_SW REUNION_R64_NW BOM_LAT BOM_LON BOM_TYPE BOM_WIND BOM_PRES BOM_TNUM BOM_CI BOM_RMW BOM_R34_NE BOM_R34_SE BOM_R34_SW BOM_R34_NW BOM_R50_NE BOM_R50_SE BOM_R50_SW BOM_R50_NW BOM_R64_NE BOM_R64_SE BOM_R64_SW BOM_R64_NW BOM_ROCI BOM_POCI BOM_EYE BOM_POS_METHOD BOM_PRES_METHOD NADI_LAT NADI_LON NADI_CAT NADI_WIND NADI_PRES WELLINGTON_LAT WELLINGTON_LON WELLINGTON_WIND WELLINGTON_PRES DS824_LAT DS824_LON DS824_STAGE DS824_WIND DS824_PRES TD9636_LAT TD9636_LON TD9636_STAGE TD9636_WIND TD9636_PRES TD9635_LAT TD9635_LON TD9635_WIND TD9635_PRES TD9635_ROCI NEUMANN_LAT NEUMANN_LON NEUMANN_CLASS NEUMANN_WIND NEUMANN_PRES MLC_LAT MLC_LON MLC_CLASS MLC_WIND MLC_PRES USA_GUST BOM_GUST BOM_GUST_PER REUNION_GUST REUNION_GUST_PER USA_SEAHGT USA_SEARAD_NE USA_SEARAD_SE USA_SEARAD_SW USA_SEARAD_NW STORM_SPEED STORM_DIR
1992233N16254 1992 72 EP MM LESTER 1992-08-20 00:00:00 TS 15.5000 -106.000 25 1011 hurdat_epa main 411 409 O_____________ hurdat_epa EP141992 15.5000 -106.000 TD 25 1011 -1 14 302
1992233N16254 1992 72 EP MM LESTER 1992-08-20 03:00:00 TS 15.8629 -106.609 main 415 412 P_____________ EP141992 15.8629 -106.609 TD 27 1010 -1 14 301
1992233N16254 1992 72 EP MM LESTER 1992-08-20 06:00:00 TS 16.2000 -107.200 30 1009 hurdat_epa main 421 418 O_____________ hurdat_epa EP141992 16.2000 -107.200 TD 30 1009 -1 13 300
1992233N16254 1992 72 EP MM LESTER 1992-08-20 09:00:00 TS 16.4998 -107.758 main 438 438 P_____________ EP141992 16.4998 -107.758 TD 30 1008 -1 12 300
1992233N16254 1992 72 EP MM LESTER 1992-08-20 12:00:00 TS 16.8000 -108.300 30 1008 hurdat_epa main 453 453 O_____________ hurdat_epa EP141992 16.8000 -108.300 TD 30 1008 -1 12 301
1992233N16254 1992 72 EP MM LESTER 1992-08-20 15:00:00 TS 17.1424 -108.858 main 478 471 P_____________ EP141992 17.1424 -108.858 TD 32 1006 -1 13 304
1992233N16254 1992 72 EP MM LESTER 1992-08-20 18:00:00 TS 17.5000 -109.400 35 1005 hurdat_epa main 496 496 O_____________ hurdat_epa EP141992 17.5000 -109.400 TS 35 1005 0 12 305
1992233N16254 1992 72 EP MM LESTER 1992-08-20 21:00:00 TS 17.8499 -109.915 main 524 518 P_____________ EP141992 17.8499 -109.915 TS 35 1004 0 12 306
1992233N16254 1992 72 EP MM LESTER 1992-08-21 00:00:00 TS 18.2000 -110.400 35 1004 hurdat_epa main 527 499 O_____________ hurdat_epa EP141992 18.2000 -110.400 TS 35 1004 0 11 308
1992233N16254 1992 72 EP MM LESTER 1992-08-21 03:00:00 TS 18.5423 -110.858 main 500 467 P_____________ EP141992 18.5423 -110.858 TS 37 1003 0 11 309
1992233N16254 1992 72 EP MM LESTER 1992-08-21 06:00:00 TS 18.9000 -111.300 40 1003 hurdat_epa main 467 439 O_____________ hurdat_epa EP141992 18.9000 -111.300 TS 40 1003 0 11 311
1992233N16254 1992 72 EP MM LESTER 1992-08-21 09:00:00 TS 19.2924 -111.758 main 443 424 P_____________ EP141992 19.2924 -111.758 TS 40 1002 0 12 313
1992233N16254 1992 72 EP MM LESTER 1992-08-21 12:00:00 TS 19.7000 -112.200 40 1002 hurdat_epa main 424 412 O_____________ hurdat_epa EP141992 19.7000 -112.200 TS 40 1002 0 11 314
1992233N16254 1992 72 EP MM LESTER 1992-08-21 15:00:00 TS 20.0849 -112.623 main 412 409 P_____________ EP141992 20.0849 -112.623 TS 42 1001 0 11 317
1992233N16254 1992 72 EP MM LESTER 1992-08-21 18:00:00 TS 20.5000 -113.000 45 1000 hurdat_epa main 409 401 O_____________ hurdat_epa EP141992 20.5000 -113.000 TS 45 1000 0 11 324
1992233N16254 1992 72 EP MM LESTER 1992-08-21 21:00:00 TS 20.9925 -113.337 main 401 382 P_____________ EP141992 20.9925 -113.337 TS 47 999 0 12 331
1992233N16254 1992 72 EP MM LESTER 1992-08-22 00:00:00 TS 21.5000 -113.600 50 998 hurdat_epa main 382 349 O_____________ hurdat_epa EP141992 21.5000 -113.600 TS 50 998 0 11 337
1992233N16254 1992 72 EP MM LESTER 1992-08-22 03:00:00 TS 21.9649 -113.780 main 346 315 P_____________ EP141992 21.9649 -113.780 TS 52 996 0 9 343
1992233N16254 1992 72 EP MM LESTER 1992-08-22 06:00:00 TS 22.4000 -113.900 55 994 hurdat_epa main 315 287 O_____________ hurdat_epa EP141992 22.4000 -113.900 TS 55 994 0 9 345
1992233N16254 1992 72 EP MM LESTER 1992-08-22 09:00:00 TS 22.8075 -114.023 main 287 263 P_____________ EP141992 22.8075 -114.023 TS 57 992 0 8 347
1992233N16254 1992 72 EP MM LESTER 1992-08-22 12:00:00 TS 23.2000 -114.100 60 990 hurdat_epa main 263 234 O_____________ hurdat_epa EP141992 23.2000 -114.100 TS 60 990 0 8 354
1992233N16254 1992 72 EP MM LESTER 1992-08-22 15:00:00 TS 23.5850 -114.123 main 234 212 P_____________ EP141992 23.5850 -114.123 TS 65 987 1 8 1
1992233N16254 1992 72 EP MM LESTER 1992-08-22 18:00:00 TS 24.0000 -114.100 70 985 hurdat_epa main 212 194 O_____________ hurdat_epa EP141992 24.0000 -114.100 HU 70 985 1 9 2
1992233N16254 1992 72 EP MM LESTER 1992-08-22 21:00:00 TS 24.4850 -114.072 main 194 181 P_____________ EP141992 24.4850 -114.072 HU 70 985 1 10 5
1992233N16254 1992 72 EP MM LESTER 1992-08-23 00:00:00 TS 25.0000 -114.000 70 985 hurdat_epa main 182 137 O_____________ hurdat_epa EP141992 25.0000 -114.000 HU 70 985 1 10 9
1992233N16254 1992 72 EP MM LESTER 1992-08-23 03:00:00 TS 25.4853 -113.885 main 137 78 P_____________ EP141992 25.4817 -113.891 HU 67 986 1 10 15
1992233N16254 1992 72 EP MM LESTER 1992-08-23 06:00:00 TS 26.0000 -113.700 65 987 hurdat_epa main 78 14 O_____________ hurdat_epa EP141992 26.0000 -113.700 HU 65 987 1 12 21
1992233N16254 1992 72 EP MM LESTER 1992-08-23 09:00:00 TS 26.5868 -113.423 main 14 0 P_____________ EP141992 26.6166 -113.365 HU 65 987 1 13 22
1992233N16254 1992 72 EP MM LESTER 1992-08-23 10:00:00 TS 26.7706 -113.357 65 988 hurdat_epa main 0 0 O_____________ hurdat_epa EP141992 26.8000 -113.300 L HU 65 988 1 11 12
1992233N16254 1992 72 EP MM LESTER 1992-08-23 12:00:00 TS 27.1000 -113.300 55 994 hurdat_epa main 0 0 O_____________ hurdat_epa EP141992 27.1000 -113.300 TS 55 994 0 12 21
1992233N16254 1992 72 EP MM LESTER 1992-08-23 15:00:00 TS 27.6763 -112.971 main 0 0 P_____________ EP141992 27.6582 -112.992 TS 50 995 0 15 29
1992233N16254 1992 72 EP MM LESTER 1992-08-23 18:00:00 TS 28.4000 -112.500 45 996 hurdat_epa main 29 0 O_____________ hurdat_epa EP141992 28.4000 -112.500 TS 45 996 0 17 27
1992233N16254 1992 72 EP MM LESTER 1992-08-23 20:00:00 TS 28.9625 -112.218 50 995 hurdat_epa main 0 0 O_____________ hurdat_epa EP141992 29.0000 -112.200 L TS 50 995 0 18 24
1992233N16254 1992 72 EP MM LESTER 1992-08-23 21:00:00 TS 29.2231 -112.091 main 0 0 P_____________ EP141992 29.2610 -112.072 TS 47 995 0 17 24
1992233N16254 1992 72 EP MM LESTER 1992-08-24 00:00:00 TS 30.0000 -111.700 40 998 hurdat_epa main 0 0 O_____________ hurdat_epa EP141992 30.0000 -111.700 TS 40 998 0 20 24
1992233N16254 1992 72 EP MM LESTER 1992-08-24 03:00:00 TS 30.9956 -111.159 main 0 0 P_____________ EP141992 30.9897 -111.163 TS 37 998 0 23 27
1992233N16254 1992 72 EP MM LESTER 1992-08-24 06:00:00 TS 32.0000 -110.500 35 999 hurdat_epa main 0 0 O_____________ hurdat_epa EP141992 32.0000 -110.500 TS 35 999 0 21 33
1992233N16254 1992 72 EP MM LESTER 1992-08-24 09:00:00 TS 32.7866 -109.808 main 0 0 P_____________ EP141992 32.7866 -109.808 TS 30 1001 -1 20 40
1992233N16254 1992 72 EP MM LESTER 1992-08-24 12:00:00 TS 33.5000 -109.000 25 1004 hurdat_epa main 0 0 O_____________ hurdat_epa EP141992 33.5000 -109.000 TD 25 1004 -1 21 45
1992233N16254 1992 72 EP MM LESTER 1992-08-24 15:00:00 TS 34.2397 -108.047 main 0 0 P_____________ EP141992 34.2397 -108.047 TD 22 1005 -1 22 48
1992233N16254 1992 72 EP MM LESTER 1992-08-24 18:00:00 TS 35.0000 -107.000 20 1006 hurdat_epa main 0 O_____________ hurdat_epa EP141992 35.0000 -107.000 TD 20 1006 -1 23 48

IBTrACS Databaseについて

本データベースは、米国NOAAが公開する1842年以降の世界の熱帯低気圧のベストトラックデータアーカイブInternational Best Track Archive for Climate Stewardship (IBTrACS)を、ウェブで閲覧しやすい形式に変換したものです。

最終更新日:2021-10-08